Time;durP1;ratioP1;P1;durP2;ratioP2;P2;SDS_P1;SDS_P2;PMS_P1;PMS_P2;Temp;Humidity;BMP_temperature;BMP_pressure;BME280_temperature;BME280_humidity;BME280_pressure;Samples;Min_cycle;Max_cycle;Signal;HPM_P1;HPM_P2
2021/01/19 00:02:10;;;;;;;4.15;3.03;;;0.00;99.90;;;;;;5026874;28;20602;-71
2021/01/19 00:04:36;;;;;;;2.50;2.25;;;0.00;99.90;;;;;;5027915;28;20221;-71
2021/01/19 00:07:02;;;;;;;4.38;2.90;;;0.00;99.90;;;;;;5027699;28;20614;-71
2021/01/19 00:09:28;;;;;;;3.95;2.83;;;0.00;99.90;;;;;;5028165;28;20202;-70
2021/01/19 00:11:55;;;;;;;3.55;2.60;;;-0.10;99.90;;;;;;5026949;28;20748;-69
2021/01/19 00:14:22;;;;;;;3.50;2.70;;;-0.10;99.90;;;;;;5027568;28;20749;-71
2021/01/19 00:16:48;;;;;;;3.30;2.70;;;0.00;99.90;;;;;;5026206;28;20210;-69
2021/01/19 00:19:14;;;;;;;3.17;2.83;;;0.00;99.90;;;;;;5025936;28;20213;-71
2021/01/19 00:21:40;;;;;;;3.25;2.95;;;0.10;99.90;;;;;;5025404;28;20237;-71
2021/01/19 00:24:07;;;;;;;3.28;2.97;;;0.00;99.90;;;;;;5026224;28;20202;-71
2021/01/19 00:26:33;;;;;;;5.47;2.92;;;0.00;99.90;;;;;;5025784;28;20252;-69
2021/01/19 00:29:00;;;;;;;5.43;3.25;;;0.00;99.90;;;;;;5026009;28;20205;-69
2021/01/19 00:31:27;;;;;;;2.80;2.60;;;0.00;99.90;;;;;;5025920;28;20700;-70
2021/01/19 00:33:53;;;;;;;6.28;3.20;;;0.00;99.90;;;;;;5024378;28;20642;-71
2021/01/19 00:36:19;;;;;;;2.90;2.63;;;-0.10;99.90;;;;;;5026342;28;20329;-71
2021/01/19 00:38:45;;;;;;;2.83;2.63;;;-0.10;99.90;;;;;;5020246;28;20482;-71
2021/01/19 00:41:12;;;;;;;6.07;2.60;;;-0.10;99.90;;;;;;5025990;28;20198;-71
2021/01/19 00:43:38;;;;;;;3.28;2.72;;;-0.10;99.90;;;;;;5025243;28;20633;-71
2021/01/19 00:46:04;;;;;;;3.95;2.40;;;-0.10;99.90;;;;;;5025220;28;20676;-71
2021/01/19 00:48:31;;;;;;;3.22;2.45;;;0.00;99.90;;;;;;5025584;28;20292;-70
2021/01/19 00:50:58;;;;;;;2.85;2.40;;;-0.10;99.90;;;;;;5020492;28;20220;-70
2021/01/19 00:53:24;;;;;;;3.95;2.85;;;-0.10;99.90;;;;;;5024970;28;20299;-69
2021/01/19 00:55:50;;;;;;;4.00;2.55;;;-0.10;99.90;;;;;;5025320;28;20716;-70
2021/01/19 00:58:16;;;;;;;5.40;2.95;;;-0.20;99.90;;;;;;5025725;28;20198;-71
2021/01/19 01:00:43;;;;;;;4.22;2.78;;;-0.20;99.90;;;;;;5025616;28;20205;-69
2021/01/19 01:03:10;;;;;;;3.90;2.85;;;-0.20;99.90;;;;;;5025000;28;20209;-70
2021/01/19 01:05:37;;;;;;;3.58;2.60;;;-0.10;99.90;;;;;;5025389;28;20226;-70
2021/01/19 01:08:04;;;;;;;6.18;3.38;;;-0.10;99.90;;;;;;5024929;28;20456;-70
2021/01/19 01:10:30;;;;;;;3.92;2.58;;;-0.20;99.90;;;;;;5024558;28;20571;-70
2021/01/19 01:12:56;;;;;;;3.00;2.67;;;-0.20;99.90;;;;;;5024225;28;20230;-71
2021/01/19 01:15:31;;;;;;;2.40;2.20;;;-0.30;99.90;;;;;;5024463;28;20218;-71
2021/01/19 01:17:57;;;;;;;2.75;2.22;;;-0.30;99.90;;;;;;5024835;28;20197;-70
2021/01/19 01:20:24;;;;;;;4.90;2.58;;;-0.20;99.90;;;;;;5024865;28;20210;-70
2021/01/19 01:22:52;;;;;;;4.78;2.97;;;-0.20;99.90;;;;;;5024738;28;20251;-71
2021/01/19 01:25:19;;;;;;;7.82;2.83;;;-0.30;99.90;;;;;;5025363;28;20602;-71
2021/01/19 01:27:46;;;;;;;2.50;2.30;;;-0.30;99.90;;;;;;5024224;28;20587;-70
2021/01/19 01:30:15;;;;;;;5.55;2.90;;;-0.30;99.90;;;;;;5024903;28;20217;-71
2021/01/19 01:32:42;;;;;;;4.85;2.70;;;-0.30;99.90;;;;;;5023939;28;20226;-71
2021/01/19 01:35:10;;;;;;;4.22;2.70;;;-0.40;99.90;;;;;;5025629;28;20630;-71
2021/01/19 01:37:36;;;;;;;3.10;2.60;;;-0.40;99.90;;;;;;5028267;28;20224;-71
2021/01/19 01:40:04;;;;;;;3.20;2.50;;;-0.40;99.90;;;;;;5027380;28;20202;-70
2021/01/19 01:42:30;;;;;;;4.53;2.50;;;-0.40;99.90;;;;;;5065984;22;20722;-73
2021/01/19 01:44:57;;;;;;;3.17;2.45;;;-0.40;99.90;;;;;;5067472;28;20231;-74
2021/01/19 01:47:25;;;;;;;4.38;2.90;;;-0.40;99.90;;;;;;5069411;28;20200;-74
2021/01/19 01:49:52;;;;;;;3.65;3.22;;;-0.50;99.90;;;;;;5068846;28;20200;-73
2021/01/19 01:52:21;;;;;;;3.67;3.38;;;-0.50;99.90;;;;;;5068838;28;20701;-73
2021/01/19 01:54:48;;;;;;;5.05;3.00;;;-0.60;99.90;;;;;;5069534;28;20224;-72
2021/01/19 01:57:16;;;;;;;4.68;3.22;;;-0.50;99.90;;;;;;5069609;28;20200;-73
2021/01/19 01:59:43;;;;;;;2.83;2.58;;;-0.50;99.90;;;;;;5069753;28;20227;-73
2021/01/19 02:02:10;;;;;;;2.90;2.33;;;-0.50;99.90;;;;;;5069330;28;20208;-72
2021/01/19 02:04:37;;;;;;;3.97;2.45;;;-0.60;99.90;;;;;;5069562;28;20224;-73
2021/01/19 02:07:12;;;;;;;3.78;2.80;;;-0.60;99.90;;;;;;5070107;28;20201;-73
2021/01/19 02:09:45;;;;;;;3.65;2.75;;;-0.60;99.90;;;;;;5069713;28;20219;-73
2021/01/19 02:12:20;;;;;;;3.50;2.60;;;-0.50;99.90;;;;;;5068764;28;20211;-74
2021/01/19 02:14:54;;;;;;;4.20;2.80;;;-0.50;99.90;;;;;;5069009;28;20727;-73
2021/01/19 02:17:27;;;;;;;2.85;2.63;;;-0.40;99.90;;;;;;5069631;28;20253;-73
2021/01/19 02:20:29;;;;;;;6.78;2.55;;;-0.40;99.90;;;;;;5069008;28;20200;-73
2021/01/19 02:23:11;;;;;;;4.20;2.55;;;-0.30;99.90;;;;;;5068980;28;20227;-73
2021/01/19 02:26:04;;;;;;;4.22;2.30;;;-0.20;99.90;;;;;;5069290;28;20574;-73
2021/01/19 02:28:37;;;;;;;2.20;2.00;;;-0.20;99.90;;;;;;5069094;28;20196;-72
2021/01/19 02:31:22;;;;;;;2.50;2.13;;;-0.20;99.90;;;;;;5069768;28;20257;-73
2021/01/19 02:34:06;;;;;;;4.10;2.67;;;-0.20;99.90;;;;;;5068902;28;20232;-73
2021/01/19 02:36:46;;;;;;;4.47;2.80;;;-0.10;99.90;;;;;;5066134;28;20266;-73
2021/01/19 02:39:15;;;;;;;5.47;2.30;;;-0.20;99.90;;;;;;5068563;28;20204;-72
2021/01/19 02:41:44;;;;;;;2.33;2.13;;;-0.10;99.90;;;;;;5068680;28;20196;-73
2021/01/19 02:44:20;;;;;;;2.78;2.30;;;-0.20;99.90;;;;;;5069351;28;20266;-73
2021/01/19 02:46:51;;;;;;;5.00;2.78;;;-0.20;99.90;;;;;;5069784;28;20207;-72
2021/01/19 02:49:18;;;;;;;3.28;2.22;;;-0.20;99.90;;;;;;5073601;28;20694;-73
2021/01/19 02:51:46;;;;;;;3.58;2.95;;;-0.20;99.90;;;;;;5072352;28;20977;-74
2021/01/19 02:54:13;;;;;;;6.40;2.28;;;-0.20;99.90;;;;;;5073184;28;20224;-73
2021/01/19 02:56:50;;;;;;;2.70;2.20;;;-0.20;99.90;;;;;;5072736;28;20888;-72
2021/01/19 02:59:27;;;;;;;2.92;2.40;;;-0.10;99.90;;;;;;5073649;28;20214;-72
2021/01/19 03:02:01;;;;;;;4.55;3.10;;;-0.10;99.90;;;;;;5072534;28;20204;-73
2021/01/19 03:04:30;;;;;;;3.08;2.58;;;-0.20;99.90;;;;;;5073204;28;20220;-72
2021/01/19 03:07:01;;;;;;;3.17;2.55;;;-0.20;99.90;;;;;;5073123;28;20212;-72
2021/01/19 03:09:30;;;;;;;4.63;2.65;;;-0.10;99.90;;;;;;5072825;28;20200;-73
2021/01/19 03:11:58;;;;;;;1.98;1.77;;;-0.10;99.90;;;;;;5072735;28;20946;-73
2021/01/19 03:14:25;;;;;;;4.68;2.83;;;-0.10;99.90;;;;;;5072789;28;20220;-71
2021/01/19 03:16:51;;;;;;;2.30;2.10;;;0.00;99.90;;;;;;5072985;28;20201;-73
2021/01/19 03:19:20;;;;;;;2.42;2.00;;;0.00;99.90;;;;;;5072848;28;20200;-73
2021/01/19 03:21:47;;;;;;;2.75;2.05;;;0.00;99.90;;;;;;5071938;28;20212;-73
2021/01/19 03:24:13;;;;;;;3.13;2.83;;;0.00;99.90;;;;;;5072639;28;20224;-72
2021/01/19 03:26:39;;;;;;;4.00;2.17;;;-0.10;99.90;;;;;;5072764;28;20209;-73
2021/01/19 03:29:05;;;;;;;2.20;2.00;;;-0.10;99.90;;;;;;5072939;28;20205;-72
2021/01/19 03:31:32;;;;;;;5.40;2.33;;;0.00;99.90;;;;;;5072174;28;20725;-71
2021/01/19 03:33:58;;;;;;;3.35;2.15;;;0.00;99.90;;;;;;5072416;28;20643;-73
2021/01/19 03:36:24;;;;;;;2.90;2.60;;;0.00;99.90;;;;;;5072957;28;20212;-73
2021/01/19 03:38:51;;;;;;;2.83;2.38;;;0.00;99.90;;;;;;5072239;28;20204;-73
2021/01/19 03:41:18;;;;;;;5.18;2.20;;;0.10;99.90;;;;;;5072542;28;20203;-73
2021/01/19 03:43:44;;;;;;;2.85;2.22;;;0.10;99.90;;;;;;5071633;28;20209;-74
2021/01/19 03:46:10;;;;;;;2.00;1.90;;;0.10;99.90;;;;;;5072353;28;20623;-74
2021/01/19 03:48:36;;;;;;;3.00;2.70;;;0.00;99.90;;;;;;5072422;28;20242;-73
2021/01/19 03:51:03;;;;;;;3.95;2.50;;;0.00;99.90;;;;;;5072309;28;20203;-73
2021/01/19 03:53:29;;;;;;;3.13;2.50;;;0.10;99.90;;;;;;5071804;28;20223;-73
2021/01/19 03:55:56;;;;;;;2.50;2.13;;;0.10;99.90;;;;;;5072171;28;20231;-72
2021/01/19 03:58:23;;;;;;;3.13;2.60;;;0.20;99.90;;;;;;5072494;28;20204;-73
2021/01/19 04:00:49;;;;;;;2.50;2.30;;;0.10;99.90;;;;;;5071026;28;20694;-73
2021/01/19 04:03:15;;;;;;;2.83;2.17;;;0.10;99.90;;;;;;5071690;28;20671;-74
2021/01/19 04:05:41;;;;;;;3.60;2.58;;;0.00;99.90;;;;;;5071193;28;20285;-74
2021/01/19 04:08:08;;;;;;;5.35;2.28;;;0.00;99.90;;;;;;5071730;28;20675;-73
2021/01/19 04:10:34;;;;;;;4.38;2.67;;;0.00;99.90;;;;;;5071789;28;20196;-74
2021/01/19 04:13:01;;;;;;;6.40;2.63;;;0.00;99.90;;;;;;5071797;28;20695;-74
2021/01/19 04:15:27;;;;;;;6.13;3.35;;;0.00;99.90;;;;;;5071945;28;20281;-72
2021/01/19 04:17:54;;;;;;;4.72;2.78;;;0.00;99.90;;;;;;5071523;28;20675;-74
2021/01/19 04:20:20;;;;;;;4.20;2.33;;;-0.10;99.90;;;;;;5071316;28;20201;-73
2021/01/19 04:22:46;;;;;;;3.60;2.50;;;-0.10;99.90;;;;;;5070212;28;20577;-74
2021/01/19 04:25:12;;;;;;;2.70;2.50;;;-0.10;99.90;;;;;;5071984;28;20224;-73
2021/01/19 04:27:39;;;;;;;3.42;2.33;;;-0.10;99.90;;;;;;5071154;28;20223;-73
2021/01/19 04:30:08;;;;;;;2.58;2.03;;;-0.10;99.90;;;;;;5070742;28;20283;-74
2021/01/19 04:32:34;;;;;;;3.60;2.53;;;-0.20;99.90;;;;;;5070105;28;20692;-73
2021/01/19 04:35:01;;;;;;;2.85;2.63;;;-0.20;99.90;;;;;;5070916;28;20231;-74
2021/01/19 04:37:27;;;;;;;3.88;2.15;;;-0.20;99.90;;;;;;5071026;28;20239;-74
2021/01/19 04:39:53;;;;;;;3.25;2.50;;;-0.20;99.90;;;;;;5076817;28;20862;-75
2021/01/19 04:42:20;;;;;;;3.75;3.22;;;-0.30;99.90;;;;;;5092512;28;20207;-75
2021/01/19 04:44:49;;;;;;;3.03;2.70;;;-0.30;99.90;;;;;;5073065;28;20227;-73
2021/01/19 04:47:16;;;;;;;2.88;2.40;;;-0.40;99.90;;;;;;5072093;28;20209;-73
2021/01/19 04:49:44;;;;;;;2.58;2.38;;;-0.40;99.90;;;;;;5070969;28;20204;-75
2021/01/19 04:52:14;;;;;;;3.92;2.28;;;-0.30;99.90;;;;;;5071192;28;20200;-74
2021/01/19 04:55:02;;;;;;;2.70;2.20;;;-0.40;99.90;;;;;;5071683;28;20228;-75
2021/01/19 04:57:30;;;;;;;6.30;2.35;;;-0.30;99.90;;;;;;5070146;28;20214;-76
2021/01/19 05:00:03;;;;;;;3.40;2.70;;;-0.30;99.90;;;;;;5068463;28;20208;-75
2021/01/19 05:02:59;;;;;;;3.80;2.80;;;-0.30;99.90;;;;;;5070184;28;20249;-75
2021/01/19 05:06:00;;;;;;;3.20;2.90;;;-0.30;99.90;;;;;;5070325;28;20723;-74
2021/01/19 05:08:42;;;;;;;4.65;2.80;;;-0.30;99.90;;;;;;5071440;28;20659;-75
2021/01/19 05:11:21;;;;;;;4.13;2.70;;;-0.30;99.90;;;;;;5070892;28;20203;-76
2021/01/19 05:13:53;;;;;;;3.13;2.30;;;-0.40;99.90;;;;;;5070079;28;20507;-75
2021/01/19 05:16:20;;;;;;;4.38;2.90;;;-0.40;99.90;;;;;;5070193;28;20257;-75
2021/01/19 05:18:48;;;;;;;3.97;2.53;;;-0.40;99.90;;;;;;5068930;28;20757;-74
2021/01/19 05:21:15;;;;;;;4.70;2.70;;;-0.40;99.90;;;;;;5069843;28;20622;-76
2021/01/19 05:23:42;;;;;;;5.00;3.05;;;-0.40;99.90;;;;;;5068977;28;20546;-75
2021/01/19 05:26:09;;;;;;;3.67;2.42;;;-0.30;99.90;;;;;;5069698;28;20224;-74
2021/01/19 05:28:38;;;;;;;3.55;2.72;;;-0.40;99.90;;;;;;5069738;28;20664;-74
2021/01/19 05:31:06;;;;;;;3.17;2.50;;;-0.40;99.90;;;;;;5068488;28;20208;-74
2021/01/19 05:33:33;;;;;;;3.47;2.70;;;-0.40;99.90;;;;;;5068132;28;20221;-74
2021/01/19 05:36:06;;;;;;;4.53;2.97;;;-0.40;99.90;;;;;;5068947;28;20227;-74
2021/01/19 05:38:47;;;;;;;3.88;2.75;;;-0.50;99.90;;;;;;5069386;28;20208;-72
2021/01/19 05:41:31;;;;;;;3.60;2.88;;;-0.50;99.90;;;;;;5070176;28;20196;-74
2021/01/19 05:44:16;;;;;;;4.32;2.80;;;-0.50;99.90;;;;;;5068588;28;20286;-74
2021/01/19 05:46:49;;;;;;;5.10;2.50;;;-0.50;99.90;;;;;;5068676;28;20675;-74
2021/01/19 05:49:17;;;;;;;3.25;2.75;;;-0.40;99.90;;;;;;5068998;28;20204;-73
2021/01/19 05:51:46;;;;;;;2.78;2.47;;;-0.50;99.90;;;;;;5068397;28;20208;-74
2021/01/19 05:54:22;;;;;;;5.05;2.67;;;-0.60;99.90;;;;;;5068924;28;20269;-74
2021/01/19 05:56:50;;;;;;;2.67;2.47;;;-0.60;99.90;;;;;;5068874;28;20200;-74
2021/01/19 05:59:34;;;;;;;3.08;2.78;;;-0.50;99.90;;;;;;5069109;28;20212;-74
2021/01/19 06:02:03;;;;;;;2.95;2.60;;;-0.50;99.90;;;;;;5068504;28;20205;-74
2021/01/19 06:04:35;;;;;;;2.92;2.63;;;-0.50;99.90;;;;;;5068923;28;20221;-73
2021/01/19 06:07:03;;;;;;;3.80;3.40;;;-0.50;99.90;;;;;;5068617;28;20261;-73
2021/01/19 06:09:29;;;;;;;4.43;3.00;;;-0.50;99.90;;;;;;5068826;28;20634;-73
2021/01/19 06:11:57;;;;;;;3.30;2.40;;;-0.50;99.90;;;;;;5067904;28;20204;-74
2021/01/19 06:14:25;;;;;;;3.08;2.40;;;-0.50;99.90;;;;;;5068790;28;20221;-75
2021/01/19 06:16:51;;;;;;;3.15;2.85;;;-0.50;99.90;;;;;;5068633;28;20261;-73
2021/01/19 06:19:29;;;;;;;4.63;2.97;;;-0.40;99.90;;;;;;5068728;28;20207;-73
2021/01/19 06:21:55;;;;;;;4.22;2.67;;;-0.50;99.90;;;;;;5067468;28;20427;-73
2021/01/19 06:24:32;;;;;;;3.53;2.78;;;-0.50;99.90;;;;;;5068305;28;20708;-75
2021/01/19 06:26:59;;;;;;;4.00;2.53;;;-0.50;99.90;;;;;;5068793;28;20704;-74
2021/01/19 06:29:26;;;;;;;5.03;2.55;;;-0.60;99.90;;;;;;5068850;28;20212;-74
2021/01/19 06:31:56;;;;;;;5.45;3.15;;;-0.70;99.90;;;;;;5067392;28;20940;-74
2021/01/19 06:34:29;;;;;;;5.53;2.50;;;-0.70;99.90;;;;;;5068381;28;20252;-74
2021/01/19 06:36:55;;;;;;;7.35;3.55;;;-0.70;99.90;;;;;;5067739;28;20232;-74
2021/01/19 06:39:30;;;;;;;5.07;3.00;;;-0.70;99.90;;;;;;5068783;28;20204;-75
2021/01/19 06:42:10;;;;;;;4.55;2.65;;;-0.80;99.90;;;;;;5067646;28;20222;-74
2021/01/19 06:44:42;;;;;;;4.90;3.22;;;-0.80;99.90;;;;;;5068899;28;20216;-73
2021/01/19 06:47:10;;;;;;;3.78;3.33;;;-0.80;99.90;;;;;;5069642;28;20745;-73
2021/01/19 06:49:38;;;;;;;3.88;3.00;;;-0.90;99.90;;;;;;5069113;28;20200;-74
2021/01/19 06:52:06;;;;;;;3.88;3.08;;;-1.00;99.90;;;;;;5075316;28;20192;-74
2021/01/19 06:54:55;;;;;;;3.97;3.08;;;-1.00;99.90;;;;;;5073467;28;20261;-74
2021/01/19 06:57:31;;;;;;;4.30;3.03;;;-1.00;99.90;;;;;;5070145;28;20196;-74
2021/01/19 07:00:07;;;;;;;4.82;2.97;;;-1.00;99.90;;;;;;5075114;28;20200;-74
2021/01/19 07:02:36;;;;;;;6.28;2.92;;;-1.00;99.90;;;;;;5075286;28;20701;-74
2021/01/19 07:05:09;;;;;;;3.55;3.25;;;-1.00;99.90;;;;;;5076899;28;20208;-74
2021/01/19 07:07:41;;;;;;;3.75;2.58;;;-1.00;99.90;;;;;;5076072;28;20586;-72
2021/01/19 07:10:09;;;;;;;2.88;2.50;;;-1.00;99.90;;;;;;5084471;28;20196;-73
2021/01/19 07:13:02;;;;;;;3.70;2.60;;;-1.10;99.90;;;;;;5066822;28;20683;-73
2021/01/19 07:15:52;;;;;;;4.75;3.20;;;-1.10;99.90;;;;;;5068266;28;20216;-75
2021/01/19 07:18:23;;;;;;;5.97;2.90;;;-1.10;99.90;;;;;;5068373;28;20207;-75
2021/01/19 07:21:02;;;;;;;3.25;2.50;;;-1.10;99.90;;;;;;5067842;28;20205;-75
2021/01/19 07:23:39;;;;;;;4.40;2.95;;;-1.10;99.90;;;;;;5068036;28;20227;-75
2021/01/19 07:26:05;;;;;;;3.90;2.88;;;-1.10;99.90;;;;;;5055502;28;20220;-74
2021/01/19 07:28:33;;;;;;;3.45;2.95;;;-1.00;99.90;;;;;;5047955;28;20707;-74
2021/01/19 07:31:00;;;;;;;7.35;3.22;;;-1.00;99.90;;;;;;5047766;28;20278;-75
2021/01/19 07:33:28;;;;;;;3.92;3.00;;;-1.00;99.90;;;;;;5047825;28;20720;-75
2021/01/19 07:35:55;;;;;;;4.88;4.47;;;-1.00;99.90;;;;;;5050699;28;20740;-75
2021/01/19 07:38:23;;;;;;;3.97;2.85;;;-0.90;99.90;;;;;;5051638;28;20809;-75
2021/01/19 07:40:49;;;;;;;3.72;3.28;;;-0.90;99.90;;;;;;5051072;28;20212;-75
2021/01/19 07:45:51;;;;;;;3.95;3.33;;;-0.90;99.90;;;;;;5028337;28;20226;-70
2021/01/19 07:48:29;;;;;;;4.20;3.35;;;-0.90;99.90;;;;;;5031224;28;20200;-70
2021/01/19 07:50:56;;;;;;;6.22;3.65;;;-0.90;99.90;;;;;;5030720;28;20225;-69
2021/01/19 07:53:22;;;;;;;4.30;2.90;;;-0.80;99.90;;;;;;5030481;28;20697;-70
2021/01/19 07:55:48;;;;;;;9.73;3.15;;;-0.70;99.90;;;;;;5030602;28;20819;-71
2021/01/19 07:58:19;;;;;;;5.80;3.60;;;-0.60;99.90;;;;;;5031553;28;20208;-70
2021/01/19 08:00:55;;;;;;;4.50;3.60;;;-0.50;99.90;;;;;;5032040;28;20205;-71
2021/01/19 08:03:27;;;;;;;4.50;3.20;;;-0.40;99.90;;;;;;5027803;28;20307;-70
2021/01/19 08:05:53;;;;;;;4.30;3.47;;;-0.10;99.90;;;;;;5031014;28;20229;-70
2021/01/19 08:08:20;;;;;;;8.45;3.60;;;0.00;99.90;;;;;;5030991;28;20205;-71
2021/01/19 08:10:57;;;;;;;3.95;3.33;;;0.20;99.90;;;;;;5030285;28;20554;-68
2021/01/19 08:13:23;;;;;;;4.05;3.65;;;0.30;99.90;;;;;;5030496;28;20218;-70
2021/01/19 08:16:03;;;;;;;4.47;3.50;;;0.40;99.90;;;;;;5029962;28;20602;-71
2021/01/19 08:18:38;;;;;;;3.83;3.42;;;0.40;99.90;;;;;;5029785;28;20198;-71
2021/01/19 08:21:07;;;;;;;6.32;3.55;;;0.60;99.90;;;;;;5031138;28;20209;-70
2021/01/19 08:23:34;;;;;;;4.40;3.47;;;0.70;99.90;;;;;;5029917;28;20731;-70
2021/01/19 08:26:05;;;;;;;9.45;3.45;;;1.10;99.90;;;;;;5030808;28;20228;-71
2021/01/19 08:28:31;;;;;;;6.47;3.47;;;1.60;99.90;;;;;;5029837;28;20213;-70
2021/01/19 08:30:57;;;;;;;5.30;4.35;;;2.10;99.90;;;;;;5030028;28;20233;-69
2021/01/19 08:33:25;;;;;;;6.07;4.10;;;2.50;99.90;;;;;;5030077;28;20578;-68
2021/01/19 08:35:53;;;;;;;5.03;3.35;;;3.10;99.90;;;;;;5029828;28;20713;-70
2021/01/19 08:38:22;;;;;;;4.72;3.20;;;3.80;99.90;;;;;;5030884;28;20232;-71
2021/01/19 08:40:48;;;;;;;4.68;4.03;;;3.90;99.90;;;;;;5028750;28;20727;-70
2021/01/19 08:43:14;;;;;;;3.90;3.50;;;3.90;99.90;;;;;;5030270;28;20205;-69
2021/01/19 08:45:41;;;;;;;5.32;3.25;;;4.00;99.90;;;;;;5029667;28;20229;-70
2021/01/19 08:48:08;;;;;;;4.22;3.70;;;3.90;99.90;;;;;;5030247;28;20264;-70
2021/01/19 08:50:37;;;;;;;4.20;3.47;;;3.50;99.90;;;;;;5029960;28;20234;-71
2021/01/19 08:53:08;;;;;;;3.65;3.35;;;3.20;99.90;;;;;;5028989;28;20228;-69
2021/01/19 08:55:34;;;;;;;5.90;3.75;;;2.40;99.90;;;;;;5030285;28;20221;-69
2021/01/19 08:58:01;;;;;;;5.60;3.80;;;2.00;99.90;;;;;;5030418;28;20259;-69
2021/01/19 09:00:29;;;;;;;4.82;3.50;;;1.50;99.90;;;;;;5030016;28;20202;-69
2021/01/19 09:02:56;;;;;;;5.93;3.60;;;1.30;99.90;;;;;;5029606;28;20210;-69
2021/01/19 09:05:27;;;;;;;4.30;2.88;;;1.20;99.90;;;;;;5030635;28;20279;-68
2021/01/19 09:07:55;;;;;;;4.13;3.40;;;1.10;99.90;;;;;;5029718;28;20256;-69
2021/01/19 09:10:26;;;;;;;4.93;3.35;;;1.00;99.90;;;;;;5029864;28;20202;-69
2021/01/19 09:12:53;;;;;;;4.75;3.70;;;0.90;99.90;;;;;;5028852;28;20210;-68
2021/01/19 09:15:20;;;;;;;4.90;3.70;;;0.90;99.90;;;;;;5030232;28;20221;-69
2021/01/19 09:17:57;;;;;;;4.07;3.35;;;1.00;99.90;;;;;;5028931;28;20208;-69
2021/01/19 09:20:24;;;;;;;6.22;3.67;;;1.00;99.90;;;;;;5030043;28;20202;-69
2021/01/19 09:22:51;;;;;;;5.35;4.28;;;1.00;99.90;;;;;;5026866;28;20209;-69
2021/01/19 09:25:20;;;;;;;4.05;3.05;;;1.00;99.90;;;;;;5030075;28;20225;-70
2021/01/19 09:27:47;;;;;;;5.50;4.15;;;1.00;99.90;;;;;;5034914;28;20198;-70
2021/01/19 09:30:15;;;;;;;4.50;3.25;;;1.00;99.90;;;;;;5028906;28;20197;-70
2021/01/19 09:32:43;;;;;;;5.28;4.88;;;1.00;99.90;;;;;;5028653;28;20202;-68
2021/01/19 09:35:10;;;;;;;6.07;3.65;;;0.90;99.90;;;;;;5029455;28;20671;-69
2021/01/19 09:37:36;;;;;;;4.40;3.70;;;0.90;99.90;;;;;;5029472;28;20252;-70
2021/01/19 09:40:04;;;;;;;7.97;3.80;;;0.90;99.90;;;;;;5028975;28;20201;-70
2021/01/19 09:42:31;;;;;;;3.90;3.45;;;1.00;99.90;;;;;;5028141;28;20221;-69
2021/01/19 09:45:00;;;;;;;6.10;3.22;;;1.00;99.90;;;;;;5028905;28;20596;-70
2021/01/19 09:47:30;;;;;;;6.40;3.72;;;1.00;99.90;;;;;;5028871;28;20649;-70
2021/01/19 09:49:56;;;;;;;6.05;3.80;;;0.90;99.90;;;;;;5029243;28;20590;-69
2021/01/19 09:52:30;;;;;;;5.40;3.55;;;0.90;99.90;;;;;;5034371;28;20201;-69
2021/01/19 09:55:07;;;;;;;4.50;3.60;;;1.00;99.90;;;;;;5040807;28;20603;-70
2021/01/19 09:57:34;;;;;;;5.38;4.05;;;1.20;99.90;;;;;;5043242;28;20202;-69
2021/01/19 10:00:01;;;;;;;5.95;4.20;;;1.30;99.90;;;;;;5043427;28;20198;-69
2021/01/19 10:02:29;;;;;;;6.93;3.88;;;1.20;99.90;;;;;;5030212;28;20673;-69
2021/01/19 10:04:59;;;;;;;6.50;3.53;;;1.30;99.90;;;;;;5029241;28;20229;-70
2021/01/19 10:07:28;;;;;;;5.20;3.15;;;1.30;99.90;;;;;;5029089;28;20208;-69
2021/01/19 10:10:06;;;;;;;4.68;3.50;;;1.30;99.90;;;;;;5028627;28;20296;-69
2021/01/19 10:12:33;;;;;;;3.80;3.20;;;1.20;99.90;;;;;;5027992;28;20205;-70
2021/01/19 10:15:00;;;;;;;5.82;4.07;;;1.20;99.90;;;;;;5028179;28;20731;-70
2021/01/19 10:17:30;;;;;;;5.55;3.70;;;1.20;99.90;;;;;;5028263;28;20576;-69
2021/01/19 10:20:11;;;;;;;4.20;3.35;;;1.20;99.90;;;;;;5027975;28;20209;-69
2021/01/19 10:22:39;;;;;;;4.03;3.30;;;1.20;99.90;;;;;;5026992;28;20201;-69
2021/01/19 10:25:07;;;;;;;4.03;3.45;;;1.10;99.90;;;;;;5028537;28;20222;-69
2021/01/19 10:27:38;;;;;;;5.95;3.90;;;1.20;99.90;;;;;;5027904;28;20229;-69
2021/01/19 10:30:06;;;;;;;5.65;3.75;;;1.20;99.90;;;;;;5028761;28;20205;-70
2021/01/19 10:32:45;;;;;;;5.45;3.60;;;1.20;99.90;;;;;;5027472;28;20202;-70
2021/01/19 10:35:12;;;;;;;9.38;4.57;;;1.20;99.90;;;;;;5024812;28;20214;-68
2021/01/19 10:37:51;;;;;;;4.43;3.72;;;1.30;99.90;;;;;;5028708;28;20665;-69
2021/01/19 10:40:18;;;;;;;6.68;3.70;;;1.30;99.90;;;;;;5028849;28;20427;-71
2021/01/19 10:42:45;;;;;;;10.90;3.63;;;1.30;99.90;;;;;;5026465;28;20197;-70
2021/01/19 10:45:12;;;;;;;7.38;3.97;;;1.30;99.90;;;;;;5028762;28;20245;-71
2021/01/19 10:47:39;;;;;;;4.10;3.25;;;1.40;99.90;;;;;;5028510;28;20201;-70
2021/01/19 10:50:11;;;;;;;3.97;3.35;;;1.40;99.90;;;;;;5028803;28;20213;-70
2021/01/19 10:52:39;;;;;;;4.63;3.42;;;1.60;99.90;;;;;;5027728;28;20205;-71
2021/01/19 10:55:05;;;;;;;7.65;3.80;;;1.60;99.90;;;;;;5027549;28;20232;-70
2021/01/19 10:57:32;;;;;;;5.10;3.90;;;1.60;99.90;;;;;;5028389;28;20267;-71
2021/01/19 10:59:59;;;;;;;5.78;3.60;;;1.60;99.90;;;;;;5028088;28;20209;-70
2021/01/19 11:02:25;;;;;;;4.13;3.72;;;1.60;99.90;;;;;;5028184;28;20210;-70
2021/01/19 11:04:51;;;;;;;6.10;3.80;;;1.70;99.90;;;;;;5030712;28;20260;-71
2021/01/19 11:07:17;;;;;;;5.75;3.63;;;1.70;99.90;;;;;;5031023;28;20742;-69
2021/01/19 11:09:43;;;;;;;4.82;3.40;;;1.80;99.90;;;;;;5031026;28;20206;-69
2021/01/19 11:12:10;;;;;;;4.35;3.20;;;1.90;99.90;;;;;;5031415;28;20205;-69
2021/01/19 11:14:36;;;;;;;5.85;3.95;;;1.90;99.90;;;;;;5031627;28;20225;-69
2021/01/19 11:17:04;;;;;;;5.10;3.40;;;1.90;99.90;;;;;;5032030;28;20256;-69
2021/01/19 11:19:30;;;;;;;5.82;3.85;;;1.90;99.90;;;;;;5031636;28;20412;-69
2021/01/19 11:21:56;;;;;;;3.85;2.83;;;1.90;99.90;;;;;;5030667;28;20206;-69
2021/01/19 11:24:23;;;;;;;6.93;3.58;;;1.90;99.90;;;;;;5031894;28;20257;-70
2021/01/19 11:26:49;;;;;;;4.00;3.50;;;1.90;99.90;;;;;;5031750;28;20209;-70
2021/01/19 11:29:15;;;;;;;5.70;3.50;;;2.00;99.90;;;;;;5031124;28;20201;-69
2021/01/19 11:31:42;;;;;;;4.78;3.45;;;2.10;99.90;;;;;;5030243;28;20209;-69
2021/01/19 11:34:11;;;;;;;4.63;3.50;;;2.10;99.90;;;;;;5031002;28;20230;-69
2021/01/19 11:36:38;;;;;;;5.10;3.17;;;2.20;99.90;;;;;;5031062;28;20289;-69
2021/01/19 11:39:06;;;;;;;5.88;4.18;;;2.20;99.90;;;;;;5031229;28;20579;-69
2021/01/19 11:41:33;;;;;;;5.50;3.17;;;2.20;99.90;;;;;;5031871;28;20244;-70
2021/01/19 11:43:59;;;;;;;3.75;3.20;;;2.20;99.90;;;;;;5031558;28;20210;-70
2021/01/19 11:46:28;;;;;;;4.20;3.33;;;2.40;99.90;;;;;;5031139;28;20228;-69
2021/01/19 11:48:56;;;;;;;3.75;3.15;;;2.40;99.90;;;;;;5031516;28;20216;-70
2021/01/19 11:51:25;;;;;;;5.45;3.25;;;2.50;99.90;;;;;;5030773;28;20210;-70
2021/01/19 11:53:54;;;;;;;5.13;3.88;;;2.50;99.90;;;;;;5030287;28;20237;-70
2021/01/19 11:56:20;;;;;;;4.85;3.58;;;2.50;99.90;;;;;;5030596;28;20213;-70
2021/01/19 11:58:47;;;;;;;4.78;3.25;;;2.50;99.90;;;;;;5030289;28;20213;-70
2021/01/19 12:01:18;;;;;;;7.65;3.67;;;2.50;99.90;;;;;;5031070;28;20202;-70
2021/01/19 12:03:44;;;;;;;4.28;2.95;;;2.50;99.90;;;;;;5030369;28;20221;-70
2021/01/19 12:06:11;;;;;;;4.30;3.38;;;2.60;99.90;;;;;;5031066;28;20222;-69
2021/01/19 12:08:38;;;;;;;4.22;3.53;;;2.60;99.90;;;;;;5030328;28;20803;-69
2021/01/19 12:11:06;;;;;;;5.20;3.00;;;2.60;99.90;;;;;;5030142;28;20213;-70
2021/01/19 12:13:32;;;;;;;3.85;3.00;;;2.60;99.90;;;;;;5030112;28;20271;-69
2021/01/19 12:15:58;;;;;;;7.72;2.80;;;2.60;99.90;;;;;;5030730;28;20218;-70
2021/01/19 12:18:25;;;;;;;5.30;3.42;;;2.70;99.90;;;;;;5030713;28;20727;-69
2021/01/19 12:20:51;;;;;;;3.10;2.80;;;2.80;99.90;;;;;;5030764;28;20348;-69
2021/01/19 12:23:17;;;;;;;4.00;3.10;;;2.80;99.90;;;;;;5029297;28;20558;-69
2021/01/19 12:25:44;;;;;;;4.88;3.13;;;2.90;99.90;;;;;;5030907;28;20221;-70
2021/01/19 12:28:10;;;;;;;2.90;2.50;;;2.90;99.90;;;;;;5033211;28;20256;-70
2021/01/19 12:30:36;;;;;;;5.13;3.55;;;2.90;99.90;;;;;;5034124;28;20673;-70
2021/01/19 12:33:03;;;;;;;3.50;3.20;;;2.90;99.90;;;;;;5049444;28;20535;-69
2021/01/19 12:35:29;;;;;;;5.75;2.90;;;2.90;99.90;;;;;;5048917;28;20334;-70
2021/01/19 12:37:55;;;;;;;4.13;3.50;;;2.90;99.90;;;;;;5049747;28;20201;-70
2021/01/19 12:40:22;;;;;;;3.58;3.25;;;3.00;99.90;;;;;;5049666;28;20885;-69
2021/01/19 12:42:50;;;;;;;4.97;3.00;;;3.00;99.90;;;;;;5043844;28;20200;-69
2021/01/19 12:45:16;;;;;;;5.65;3.13;;;3.00;99.90;;;;;;5049766;28;20625;-70
2021/01/19 12:47:42;;;;;;;5.72;3.08;;;3.00;99.90;;;;;;5048034;28;20808;-70
2021/01/19 12:50:09;;;;;;;4.63;3.08;;;3.00;99.90;;;;;;5049439;28;20204;-69
2021/01/19 12:52:35;;;;;;;5.65;3.15;;;3.00;99.90;;;;;;5042236;28;20206;-70
2021/01/19 12:55:02;;;;;;;3.15;2.60;;;3.10;99.90;;;;;;5045799;28;20704;-69
2021/01/19 12:57:28;;;;;;;3.88;3.00;;;3.10;99.90;;;;;;5049997;28;20249;-69
2021/01/19 12:59:55;;;;;;;7.47;3.22;;;3.10;99.90;;;;;;5049674;28;20238;-69
2021/01/19 13:02:21;;;;;;;3.55;2.97;;;3.10;99.90;;;;;;5039461;28;20567;-70
2021/01/19 13:04:47;;;;;;;6.68;3.30;;;3.10;99.90;;;;;;5029285;28;20210;-69
2021/01/19 13:07:15;;;;;;;3.65;3.35;;;3.10;99.90;;;;;;5029747;28;20220;-69